Aérodrome :
LOGIN :

S'inscrire | Disclaimer

   EN    FR    IT 

 










Légende :    VFR   VFR Marginal   IFR   IFR Intensif   IFR Très Intensif
Visi : 
Plafond : 
>= 8 km
>= 3000ft
5 à 8 km
1000 à 3000 ft
1500m à 5 km
500 à 1000 ft
800 à 1500m
200 à 500 ft
< 800m
< 200 ft
Symboles :   Orages  Brouillard  Fortes neiges  Fortes précipitations  Vent > 20 kt
SIGMETs :   Divers  Orages  Givrage  Turbulence  Onde Orograph.  Cendres Volcan.







- Altitude de l'aérodrome : 203 ft
- Code IATA : XMJ
- Voir les cartes d'approche


LFBM - Mont-De-Marsan

DERNIER METAR :
  • 161930Z AUTO 29006KT 9999 BKN025 BKN031 OVC040 21/17 Q1020 NOSIG

METARs EXPIRÉS :
  • 161900Z AUTO 30007KT 9999 SCT032 22/17 Q1020 NOSIG
  • 161830Z AUTO 30010KT 9999 FEW037 23/17 Q1019 NOSIG
  • 161800Z AUTO 29011KT 9999 FEW003 SCT032 23/17 Q1019 NOSIG
  • 161730Z AUTO 29012KT 9999 SCT032 BKN062 24/17 Q1019 NOSIG
  • 161700Z AUTO 30011KT 9999 FEW033 SCT058 24/18 Q1018 TEMPO SHRA SCT025CB

TAF TAF LFBM
Valide du 16 à 15h jusqu'au 17 à 15h UTC


161400Z 1615/1715 27010KT 9999 SCT025CB
TEMPO 1615/1618 5000 SHRA
BECMG 1618/1621 BKN025
BECMG 1700/1702 VRB02KT 4000 BR BKN005
TEMPO 1703/1708 0800 FG BKN003
BECMG 1708/1710 22010KT BKN025
Pas de NOTAMs connus pour ce terrain.
3 SIGMETs publiés pour la FIR Bordeaux (LFBB) :
 
Turbulence forte
LFBB SIGMET 19 VALID 162000/162200 LFPW
LFBB BORDEAUX FIR/UIR SEV TURB FCST WI N4315 E00230 - N4230 E00230 - N4245 E00200 - N4315 E00230 SFC/FL060 STNR NC=
Orages noyés dans la masse
LFBB SIGMET 18 VALID 161800/162000 LFPW
LFBB BORDEAUX FIR/UIR EMBD TS FCST WI N4630 W00015 - N4715 W00015 - N4715 E00030 - N4600 E00115 - N4545 E00000 - N4630 W00015 TOP FL330 MOV E 15KT NC=
Turbulence forte
LFBB SIGMET 16 VALID 161600/162000 LFPW
LFBB BORDEAUX FIR/UIR SEV TURB FCST WI N4315 E00245 - N4230 E00230 - N4300 E00215 - N4315 E00245 SFC/FL060 STNR NC=



MET'MAP, la Météo Aéronautique d'un coup d'oeil ! - Copyright ORBIFLY Décembre 2007 - Disclaimer

ORBIFLY MET'MAP TEAM :

Programmation & Développement : Alexandra Zaïnal
Conception & Développement : Baudouin d'Aumeries
Co-Programmation & Développement : Marc-Olivier Méhu
Soutien technique & logistique : Manuel Goepfert

Contact : metmap@orbifly.com




SOURCES & CREDITS :

   NOAA